ENNA METAR and TAF weather

Enter ICAO airport designator
Station Type Date Time Source
ENNA METAR 2023/01/29 17:50 UTC NOAA

ENNA 291750Z 18012KT 9999 BKN039 00/M06 Q0975 RMK WIND 1800FT 27030KT


Station Type Date Time Source
ENNA Decoded METAR 2023/01/29 17:50 UTC NOAA

Banak, Norway (ENNA) 70-04N 024-59E 8M
Jan 29, 2023 - 12:50 PM EST / 2023.01.29 1750 UTC
Wind: from the S (180 degrees) at 14 MPH (12 KT):0
Visibility: greater than 7 mile(s):0
Sky conditions: mostly cloudy
Temperature: 32 F (0 C)
Windchill: 21 F (-6 C):1
Dew Point: 21 F (-6 C)
Relative Humidity: 63%
Pressure (altimeter): 28.79 in. Hg (0975 hPa)
ob: ENNA 291750Z 18012KT 9999 BKN039 00/M06 Q0975 RMK WIND 1800FT 27030KT
cycle: 18

Station Type Date Time Source
ENNA TAF 2023/01/29 18:57 UTC NOAA

TAF TAF ENNA 291700Z 2918/3018 18009KT 9999 FEW030 BKN045
TEMPO 2918/2921 27015G25KT PROB40
TEMPO 3012/3018 4000 -SHSN VV014

Example: see airport list